Time;durP1;ratioP1;P1;durP2;ratioP2;P2;SDS_P1;SDS_P2;PMS_P1;PMS_P2;Temp;Humidity;BMP_temperature;BMP_pressure;BME280_temperature;BME280_humidity;BME280_pressure;Samples;Min_cycle;Max_cycle;Signal;HPM_P1;HPM_P2
2022/05/05 00:02:11;;;;;;;49.92;27.13;;;;;;;12.06;100.00;99912.47;12197155;19;20006;-82
2022/05/05 00:06:13;;;;;;;49.58;28.92;;;;;;;12.11;100.00;99924.72;12200376;19;20003;-80
2022/05/05 00:14:35;;;;;;;49.70;29.52;;;;;;;12.09;100.00;99917.50;12203925;19;20018;-81
2022/05/05 00:18:37;;;;;;;47.50;28.55;;;;;;;12.04;100.00;99916.59;12210208;19;20010;-78
2022/05/05 00:22:38;;;;;;;47.58;28.15;;;;;;;12.01;100.00;99926.22;12185318;19;20095;-79
2022/05/05 00:26:40;;;;;;;50.05;28.95;;;;;;;11.98;100.00;99918.44;12200366;19;20031;-80
2022/05/05 00:30:42;;;;;;;53.70;29.92;;;;;;;11.92;100.00;99921.41;12205879;19;20353;-81
2022/05/05 00:34:44;;;;;;;53.03;29.88;;;;;;;11.86;100.00;99924.09;12189481;19;20086;-79
2022/05/05 00:38:48;;;;;;;55.40;30.10;;;;;;;11.83;100.00;99913.53;12206344;19;20010;-79
2022/05/05 00:42:50;;;;;;;52.58;28.88;;;;;;;11.83;100.00;99913.53;12206813;19;20011;-79
2022/05/05 00:46:51;;;;;;;55.90;30.75;;;;;;;11.85;100.00;99927.13;12183356;19;20074;-80
2022/05/05 00:50:54;;;;;;;54.17;29.77;;;;;;;11.85;100.00;99924.38;12203628;19;20027;-80
2022/05/05 00:54:57;;;;;;;54.08;29.40;;;;;;;11.89;100.00;99928.28;12172766;19;20027;-80
2022/05/05 00:59:26;;;;;;;53.55;28.77;;;;;;;11.90;100.00;99920.81;12201642;19;20034;-81
2022/05/05 01:03:31;;;;;;;53.90;29.55;;;;;;;11.80;100.00;99918.72;12203915;19;20018;-79
2022/05/05 01:07:34;;;;;;;52.50;29.13;;;;;;;11.81;100.00;99925.94;12172606;19;20014;-80
2022/05/05 01:11:35;;;;;;;50.15;29.38;;;;;;;11.82;100.00;99922.91;12201711;19;20070;-80
2022/05/05 01:15:37;;;;;;;55.30;31.27;;;;;;;11.85;100.00;99922.44;12197743;19;20074;-80
2022/05/05 01:19:39;;;;;;;57.17;30.50;;;;;;;11.86;100.00;99926.03;12182617;19;20358;-82
2022/05/05 01:23:40;;;;;;;57.45;30.27;;;;;;;11.86;100.00;99935.13;12194396;19;20007;-81
2022/05/05 01:32:03;;;;;;;53.92;30.92;;;;;;;11.85;100.00;99932.66;12183717;19;20002;-79
2022/05/05 01:36:05;;;;;;;55.30;29.95;;;;;;;11.81;100.00;99945.28;12193347;19;20039;-80
2022/05/05 01:40:07;;;;;;;51.87;30.00;;;;;;;11.79;100.00;99939.16;12175950;19;20019;-80
2022/05/05 01:44:09;;;;;;;50.17;28.23;;;;;;;11.81;100.00;99943.34;12198647;19;20729;-81
2022/05/05 01:48:11;;;;;;;46.53;26.83;;;;;;;11.83;100.00;99949.41;12198599;19;20820;-80
2022/05/05 01:52:13;;;;;;;54.03;29.03;;;;;;;11.81;100.00;99945.28;12176500;19;20071;-80
2022/05/05 01:56:14;;;;;;;49.95;28.48;;;;;;;11.83;100.00;99941.13;12190425;19;20699;-80
2022/05/05 02:00:18;;;;;;;52.30;28.57;;;;;;;11.84;100.00;99948.34;12212140;19;20483;-81
2022/05/05 02:04:19;;;;;;;46.92;27.45;;;;;;;11.83;100.00;99952.19;12194052;19;20002;-79
2022/05/05 02:08:21;;;;;;;54.58;28.27;;;;;;;11.83;100.00;99952.19;12209193;19;20011;-79
2022/05/05 02:12:22;;;;;;;51.92;28.13;;;;;;;11.84;100.00;99959.41;12203533;19;20047;-82
2022/05/05 02:16:24;;;;;;;54.50;28.85;;;;;;;11.83;100.00;99957.69;12191559;19;20453;-83
2022/05/05 02:20:26;;;;;;;49.10;28.08;;;;;;;11.84;100.00;99964.09;12206221;19;20068;-82
2022/05/05 02:24:28;;;;;;;47.90;26.55;;;;;;;11.84;100.00;99953.88;12215355;19;20019;-81
2022/05/05 02:28:31;;;;;;;53.10;27.03;;;;;;;11.86;100.00;99957.22;12194878;19;20014;-79
2022/05/05 02:32:33;;;;;;;51.22;28.17;;;;;;;11.86;100.00;99960.00;12215847;19;20520;-79
2022/05/05 02:40:56;;;;;;;53.78;27.95;;;;;;;11.83;100.00;99966.00;12186769;19;20364;-80
2022/05/05 02:44:57;;;;;;;53.10;27.98;;;;;;;11.83;100.00;99956.88;12209359;19;20011;-82
2022/05/05 02:48:59;;;;;;;56.33;28.65;;;;;;;11.84;100.00;99961.31;12191104;19;20002;-81
2022/05/05 02:54:46;;;;;;;59.33;29.42;;;;;;;11.82;100.00;99956.03;12206425;19;20078;-79
2022/05/05 02:57:24;;;;;;;57.88;29.83;;;;;;;11.84;100.00;99964.09;12208519;19;20433;-82
2022/05/05 03:01:26;;;;;;;57.70;30.70;;;;;;;11.86;100.00;99962.75;12183442;19;20027;-80
2022/05/05 03:05:27;;;;;;;58.47;30.83;;;;;;;11.86;100.00;99954.47;12209400;19;20775;-80
2022/05/05 03:09:29;;;;;;;63.85;33.08;;;;;;;11.86;100.00;99946.19;12202411;19;20121;-81
2022/05/05 03:13:31;;;;;;;60.83;30.67;;;;;;;11.88;100.00;99953.41;12180139;19;20018;-80
2022/05/05 03:17:33;;;;;;;61.90;32.40;;;;;;;11.89;100.00;99955.06;12209749;19;20014;-80
2022/05/05 03:21:34;;;;;;;57.90;29.13;;;;;;;11.89;100.00;99950.38;12203589;19;20471;-79
2022/05/05 03:25:37;;;;;;;56.03;29.48;;;;;;;11.89;100.00;99964.16;12177575;19;20015;-79
2022/05/05 03:29:39;;;;;;;56.97;28.60;;;;;;;11.89;100.00;99971.63;12204407;19;20031;-80
2022/05/05 03:33:41;;;;;;;54.47;28.40;;;;;;;11.88;100.00;99976.31;12205822;19;20013;-79
2022/05/05 03:37:42;;;;;;;58.15;28.92;;;;;;;11.89;100.00;99977.16;12185509;19;20014;-78
2022/05/05 03:41:44;;;;;;;61.70;30.52;;;;;;;11.88;100.00;99984.59;12207264;19;20006;-78
2022/05/05 03:45:46;;;;;;;53.53;29.15;;;;;;;11.89;100.00;99989.03;12207643;19;20013;-78
2022/05/05 03:49:48;;;;;;;53.50;28.67;;;;;;;11.90;100.00;99989.84;12197168;19;20007;-78
2022/05/05 03:53:49;;;;;;;59.35;27.70;;;;;;;11.91;100.00;99995.13;12210385;19;20074;-79
2022/05/05 03:57:51;;;;;;;53.60;28.27;;;;;;;11.94;100.00;99996.56;12209953;19;20002;-79
2022/05/05 04:01:53;;;;;;;58.80;28.58;;;;;;;11.94;100.00;100007.59;12193187;19;19998;-78
2022/05/05 04:05:56;;;;;;;56.92;29.70;;;;;;;11.92;100.00;99998.72;12205185;19;20029;-78
2022/05/05 04:09:57;;;;;;;59.33;28.35;;;;;;;11.93;100.00;99989.34;12192689;19;20020;-78
2022/05/05 04:13:59;;;;;;;57.75;29.40;;;;;;;11.92;100.00;99996.78;12223281;19;20011;-80
2022/05/05 04:18:01;;;;;;;58.53;28.95;;;;;;;11.84;100.00;99995.28;12212581;19;20011;-80
2022/05/05 04:22:03;;;;;;;48.05;29.58;;;;;;;11.86;100.00;100012.44;12200432;19;20485;-80
2022/05/05 04:26:06;;;;;;;53.58;29.02;;;;;;;11.88;100.00;100014.13;12222306;19;20010;-79
2022/05/05 04:30:08;;;;;;;49.78;27.63;;;;;;;11.92;100.00;100023.56;12211426;19;20060;-79
2022/05/05 04:34:10;;;;;;;49.00;28.77;;;;;;;11.91;100.00;100027.44;12195456;19;20018;-80
2022/05/05 04:38:12;;;;;;;48.85;27.98;;;;;;;11.94;100.00;100037.97;12210536;19;20033;-80
2022/05/05 04:42:14;;;;;;;49.83;28.05;;;;;;;11.97;100.00;100041.06;12206250;19;20006;-80
2022/05/05 04:46:15;;;;;;;49.97;27.98;;;;;;;11.99;100.00;100049.13;12188028;19;20011;-80
2022/05/05 04:50:18;;;;;;;;;;;;;;;11.96;100.00;100055.16;12219398;19;20027;-79
2022/05/05 04:54:20;;;;;;;51.90;27.45;;;;;;;11.96;100.00;100060.66;12210372;19;19915;-78
2022/05/05 04:58:23;;;;;;;43.95;25.55;;;;;;;11.95;100.00;100065.31;12179302;19;20014;-80
2022/05/05 05:02:24;;;;;;;46.87;27.73;;;;;;;11.94;100.00;100058.13;12209598;19;20014;-80
2022/05/05 05:06:27;;;;;;;45.10;25.53;;;;;;;11.93;100.00;100066.66;12199813;19;20283;-80
2022/05/05 05:10:29;;;;;;;48.42;26.35;;;;;;;11.95;100.00;100067.25;12192686;19;20010;-79
2022/05/05 05:14:31;;;;;;;43.58;25.45;;;;;;;11.97;100.00;100073.38;12198130;19;20024;-79
2022/05/05 05:18:32;;;;;;;44.92;25.55;;;;;;;12.02;100.00;100081.75;12213147;19;20006;-79
2022/05/05 05:22:34;;;;;;;44.00;25.70;;;;;;;12.07;100.00;100079.03;12194283;19;20399;-80
2022/05/05 05:26:36;;;;;;;43.28;26.08;;;;;;;12.15;100.00;100092.44;12217476;19;20017;-80
2022/05/05 05:30:38;;;;;;;40.47;23.77;;;;;;;12.23;100.00;100097.53;12223326;19;20018;-80
2022/05/05 05:34:40;;;;;;;42.65;25.83;;;;;;;12.31;100.00;100097.09;12204025;19;20011;-79
2022/05/05 05:38:42;;;;;;;42.83;25.63;;;;;;;12.32;100.00;100098.75;12229403;19;20013;-79
2022/05/05 05:42:45;;;;;;;42.20;25.35;;;;;;;12.34;100.00;100101.25;12213091;19;21394;-78
2022/05/05 05:46:47;;;;;;;39.53;24.67;;;;;;;12.33;100.00;100110.66;12185529;19;20073;-78
2022/05/05 05:50:48;;;;;;;41.05;24.83;;;;;;;12.37;100.00;100122.03;12193798;19;20035;-79
2022/05/05 05:54:50;;;;;;;40.67;25.35;;;;;;;12.39;100.00;100125.38;12212154;19;20010;-79
2022/05/05 05:58:57;;;;;;;37.47;23.45;;;;;;;12.45;100.00;100118.84;12199996;19;20053;-80
2022/05/05 06:07:19;;;;;;;36.33;21.20;;;;;;;12.50;100.00;100113.38;12194530;19;20006;-79
2022/05/05 06:11:22;;;;;;;35.92;20.17;;;;;;;12.48;100.00;100112.78;12217108;19;20006;-79
2022/05/05 06:15:26;;;;;;;33.03;19.88;;;;;;;12.34;100.00;100122.53;12222469;19;20014;-80
2022/05/05 06:19:27;;;;;;;31.77;19.00;;;;;;;12.27;100.00;100125.47;12201313;19;20484;-79
2022/05/05 06:23:30;;;;;;;36.25;19.42;;;;;;;12.20;100.00;100122.91;12230675;19;20498;-80
2022/05/05 06:27:33;;;;;;;28.45;17.50;;;;;;;12.12;100.00;100123.31;12237676;19;20437;-80
2022/05/05 06:31:36;;;;;;;31.25;19.35;;;;;;;12.12;100.00;100131.59;12207937;19;20059;-77
2022/05/05 06:35:39;;;;;;;33.60;19.40;;;;;;;12.24;100.00;100139.81;12229212;19;20055;-79
2022/05/05 06:39:41;;;;;;;31.92;18.90;;;;;;;12.35;100.00;100147.16;12232849;19;20071;-79
2022/05/05 06:43:43;;;;;;;34.10;19.48;;;;;;;12.44;100.00;100150.34;12196032;19;20003;-80
2022/05/05 06:47:45;;;;;;;28.17;17.20;;;;;;;12.57;100.00;100160.19;12226691;19;20006;-79
2022/05/05 06:51:46;;;;;;;25.25;16.23;;;;;;;12.65;100.00;100160.59;12225325;19;20835;-79
2022/05/05 06:55:49;;;;;;;26.80;17.33;;;;;;;12.82;100.00;100152.25;12192285;19;20091;-79
2022/05/05 06:59:51;;;;;;;29.05;16.02;;;;;;;12.90;100.00;100160.09;12217575;19;20315;-78
2022/05/05 07:05:23;;;;;;;23.50;14.95;;;;;;;12.98;100.00;100169.88;12206471;19;20011;-79
2022/05/05 07:08:14;;;;;;;23.73;13.98;;;;;;;12.99;100.00;100166.00;12215951;19;20034;-79
2022/05/05 07:12:16;;;;;;;23.45;14.23;;;;;;;13.00;100.00;100176.00;12213271;19;20010;-80
2022/05/05 07:16:20;;;;;;;27.77;14.55;;;;;;;12.99;100.00;100174.31;12190818;19;20014;-79
2022/05/05 07:20:23;;;;;;;32.07;14.60;;;;;;;13.04;100.00;100179.91;12215489;19;20019;-78
2022/05/05 07:24:25;;;;;;;25.65;15.30;;;;;;;13.13;100.00;100183.06;12212373;19;20047;-79
2022/05/05 07:28:33;;;;;;;27.77;16.17;;;;;;;13.19;100.00;100188.41;12197906;19;20014;-78
2022/05/05 07:32:35;;;;;;;26.23;15.00;;;;;;;13.25;100.00;100189.34;12214976;19;20011;-79
2022/05/05 07:36:37;;;;;;;23.30;14.43;;;;;;;13.33;100.00;100196.34;12208369;19;20011;-79
2022/05/05 07:40:39;;;;;;;23.15;14.70;;;;;;;13.44;100.00;100195.34;12190077;19;20026;-78
2022/05/05 07:44:41;;;;;;;22.13;13.68;;;;;;;13.69;100.00;100194.81;12207472;19;20014;-77
2022/05/05 07:48:44;;;;;;;24.08;14.23;;;;;;;14.01;100.00;100203.16;12210184;19;20028;-78
2022/05/05 07:52:46;;;;;;;22.02;12.52;;;;;;;14.34;100.00;100206.78;12192376;19;20003;-78
2022/05/05 07:56:51;;;;;;;33.15;15.00;;;;;;;14.41;100.00;100212.91;12204585;19;20015;-78
2022/05/05 08:00:52;;;;;;;33.03;14.38;;;;;;;14.39;100.00;100222.59;12196813;19;20351;-79
2022/05/05 08:04:55;;;;;;;23.25;12.60;;;;;;;14.33;100.00;100227.25;12198326;19;20833;-78
2022/05/05 08:08:58;;;;;;;29.88;14.85;;;;;;;14.28;100.00;100238.31;12211621;19;20365;-78
2022/05/05 08:12:59;;;;;;;26.08;13.55;;;;;;;14.26;100.00;100240.50;12180372;19;20006;-78
2022/05/05 08:17:01;;;;;;;18.83;11.57;;;;;;;14.18;100.00;100238.22;12211280;19;20017;-80
2022/05/05 08:21:04;;;;;;;21.88;12.00;;;;;;;14.11;100.00;100235.66;12205997;19;20086;-78
2022/05/05 08:29:27;;;;;;;22.17;13.48;;;;;;;14.15;100.00;100242.34;12217500;19;20427;-79
2022/05/05 08:33:29;;;;;;;20.30;13.13;;;;;;;14.21;100.00;100248.78;12207429;19;20019;-80
2022/05/05 08:37:32;;;;;;;23.15;13.68;;;;;;;14.28;100.00;100246.63;12190528;19;20754;-80
2022/05/05 08:41:35;;;;;;;21.75;13.45;;;;;;;14.31;98.60;100249.72;12201843;19;20027;-80
2022/05/05 08:45:38;;;;;;;27.27;14.80;;;;;;;14.35;98.73;100253.63;12205138;19;20027;-81
2022/05/05 08:49:41;;;;;;;25.70;13.80;;;;;;;14.28;97.40;100252.19;12186463;19;20010;-82
2022/05/05 08:53:48;;;;;;;25.73;14.20;;;;;;;14.16;97.01;100257.03;12186029;19;20003;-82
2022/05/05 08:57:50;;;;;;;30.73;15.57;;;;;;;14.22;95.72;100259.63;12205943;19;20117;-81
2022/05/05 09:01:52;;;;;;;31.67;17.70;;;;;;;14.20;96.69;100261.81;12176720;19;20011;-82
2022/05/05 09:06:01;;;;;;;28.20;15.77;;;;;;;14.30;96.49;100261.06;12192086;19;20388;-82
2022/05/05 09:10:27;;;;;;;23.42;15.18;;;;;;;14.50;97.41;100264.00;12208284;19;20010;-83
2022/05/05 09:14:56;;;;;;;26.95;14.80;;;;;;;14.76;94.88;100258.69;11979758;19;2004349;-83
2022/05/05 09:19:01;;;;;;;24.25;12.73;;;;;;;14.75;91.41;100262.56;12184493;19;20026;-83
2022/05/05 09:23:03;;;;;;;23.77;14.07;;;;;;;14.79;92.60;100259.00;12220426;19;20013;-83
2022/05/05 09:27:25;;;;;;;27.05;15.57;;;;;;;14.69;93.53;100258.91;12219271;19;20017;-83
2022/05/05 09:31:26;;;;;;;21.08;13.35;;;;;;;14.61;93.25;100261.34;12193623;19;20374;-83
2022/05/05 09:35:29;;;;;;;24.33;14.05;;;;;;;14.48;91.67;100257.03;12208946;19;20014;-83
2022/05/05 09:39:35;;;;;;;20.77;11.80;;;;;;;14.48;90.20;100259.81;12204106;19;20006;-83
2022/05/05 09:43:37;;;;;;;18.65;12.00;;;;;;;14.51;90.64;100259.28;12186018;19;20038;-83
2022/05/05 09:47:41;;;;;;;21.90;13.43;;;;;;;14.64;90.35;100261.66;12204346;19;20278;-83
2022/05/05 09:57:39;;;;;;;20.50;13.02;;;;;;;14.79;89.69;100266.47;12217504;19;20014;-83
2022/05/05 10:04:52;;;;;;;23.02;13.05;;;;;;;15.20;89.23;100278.69;12182278;19;20019;-84
2022/05/05 10:08:59;;;;;;;21.65;12.82;;;;;;;15.39;89.68;100275.44;12213067;19;20506;-84
2022/05/05 10:13:01;;;;;;;26.20;12.93;;;;;;;15.52;88.13;100285.19;12195161;19;20007;-83
2022/05/05 10:17:03;;;;;;;23.10;12.32;;;;;;;15.59;85.50;100271.91;12205757;19;20010;-83
2022/05/05 10:21:23;;;;;;;24.55;12.45;;;;;;;15.54;84.98;100280.22;12207102;19;20011;-84
2022/05/05 10:25:27;;;;;;;20.77;13.50;;;;;;;15.85;86.11;100267.28;12188441;19;20022;-84
2022/05/05 10:29:30;;;;;;;20.27;11.63;;;;;;;16.30;84.38;100263.78;12212981;19;20429;-84
2022/05/05 10:34:01;;;;;;;19.20;11.57;;;;;;;16.77;80.03;100254.31;12210327;19;20010;-84
2022/05/05 10:38:39;;;;;;;16.50;11.13;;;;;;;17.39;75.15;100266.13;12177096;19;20472;-85
2022/05/05 10:42:45;;;;;;;19.55;11.20;;;;;;;17.60;75.13;100261.31;12201990;19;20011;-83
2022/05/05 10:47:04;;;;;;;22.10;10.88;;;;;;;17.77;72.43;100255.41;12184310;19;20030;-82
2022/05/05 10:51:06;;;;;;;16.75;10.13;;;;;;;17.83;70.53;100270.16;12210603;19;20014;-82
2022/05/05 10:55:26;;;;;;;23.17;10.85;;;;;;;17.89;70.55;100263.44;12183325;19;20010;-83
2022/05/05 11:00:10;;;;;;;21.73;11.18;;;;;;;18.27;64.30;100264.59;12211647;19;20525;-83
2022/05/05 11:04:15;;;;;;;17.95;10.57;;;;;;;18.34;66.56;100251.13;12181579;19;20012;-82
2022/05/05 11:08:19;;;;;;;21.63;10.65;;;;;;;18.65;63.70;100254.53;12210700;19;20472;-83
2022/05/05 11:12:23;;;;;;;18.23;10.45;;;;;;;19.10;62.46;100249.63;12201201;19;20010;-82
2022/05/05 11:25:57;;;;;;;16.58;9.30;;;;;;;20.41;57.04;100261.31;12196448;19;20469;-83
2022/05/05 11:30:38;;;;;;;20.13;9.75;;;;;;;20.40;57.43;100264.41;12164929;19;20038;-82
2022/05/05 11:35:23;;;;;;;24.30;10.15;;;;;;;20.52;54.35;100247.16;12182357;19;20031;-82
2022/05/05 11:44:41;;;;;;;17.40;9.63;;;;;;;20.85;50.46;100250.78;12201607;19;20020;-83
2022/05/05 11:48:51;;;;;;;16.05;8.57;;;;;;;20.76;52.80;100255.44;12227748;19;20698;-82
2022/05/05 11:52:53;;;;;;;15.20;7.13;;;;;;;21.06;50.89;100251.25;12187737;19;20028;-81
2022/05/05 11:57:21;;;;;;;15.38;7.57;;;;;;;21.23;49.69;100243.06;12179517;19;20014;-82
2022/05/05 12:01:51;;;;;;;14.35;6.70;;;;;;;21.19;49.39;100244.00;12226650;19;20013;-81
2022/05/05 12:06:27;;;;;;;15.55;8.15;;;;;;;21.14;49.41;100242.97;12196970;19;20132;-82
2022/05/05 12:10:45;;;;;;;15.05;7.45;;;;;;;21.34;49.76;100238.09;12176588;19;20050;-82
2022/05/05 12:15:00;;;;;;;14.38;7.22;;;;;;;21.34;48.11;100232.50;12194421;19;20007;-82
2022/05/05 12:20:12;;;;;;;13.18;6.63;;;;;;;21.30;46.92;100237.06;12145114;19;20019;-82
2022/05/05 12:24:51;;;;;;;13.13;6.40;;;;;;;21.06;48.17;100240.03;12191280;19;20010;-82
2022/05/05 12:29:42;;;;;;;15.85;6.25;;;;;;;21.04;47.45;100240.38;12170974;19;20083;-81
2022/05/05 12:35:17;;;;;;;18.75;7.50;;;;;;;21.00;47.92;100236.53;12224365;19;20033;-81
2022/05/05 12:40:28;;;;;;;12.23;7.03;;;;;;;20.99;48.59;100231.22;12115804;19;20051;-81
2022/05/05 12:44:35;;;;;;;10.43;6.75;;;;;;;20.76;46.68;100236.66;12194321;19;20131;-82
2022/05/05 13:02:30;;;;;;;11.20;6.15;;;;;;;21.33;45.32;100236.44;12093403;19;2004366;-84
2022/05/05 13:06:35;;;;;;;10.27;5.75;;;;;;;21.57;45.00;100239.06;12198732;19;20002;-82
2022/05/05 13:10:39;;;;;;;9.80;5.07;;;;;;;21.31;44.59;100239.56;12179149;19;20010;-82
2022/05/05 13:14:41;;;;;;;8.38;5.05;;;;;;;20.86;43.48;100238.47;12196941;19;20011;-83
2022/05/05 13:18:44;;;;;;;8.73;5.65;;;;;;;20.60;45.44;100235.28;12205226;19;20018;-83
2022/05/05 13:22:47;;;;;;;11.63;5.28;;;;;;;20.43;45.69;100228.25;12170367;19;20085;-83
2022/05/05 13:26:57;;;;;;;8.13;4.80;;;;;;;19.98;45.44;100227.00;12214393;19;20082;-82
2022/05/05 13:31:05;;;;;;;11.98;5.13;;;;;;;19.55;46.28;100232.63;12188241;19;20006;-82
2022/05/05 13:35:07;;;;;;;10.88;4.95;;;;;;;19.25;48.08;100229.06;12203417;19;20014;-81
2022/05/05 13:40:02;;;;;;;11.15;5.15;;;;;;;19.01;48.17;100226.28;12209100;19;20070;-81
2022/05/05 13:44:15;;;;;;;9.27;5.47;;;;;;;18.62;48.75;100221.63;12176253;19;20017;-81
2022/05/05 13:58:54;;;;;;;6.47;3.20;;;;;;;18.00;47.15;100223.22;12180460;19;20013;-81
2022/05/05 14:14:04;;;;;;;7.45;3.30;;;;;;;18.24;48.23;100226.13;12233347;19;20015;-81
2022/05/05 14:18:59;;;;;;;6.55;2.95;;;;;;;18.11;47.51;100229.56;12209547;19;20097;-82
2022/05/05 14:48:20;;;;;;;5.35;2.58;;;;;;;18.44;49.03;100220.38;12200922;19;20476;-80
2022/05/05 16:05:00;;;;;;;6.55;2.67;;;;;;;17.37;60.58;100222.97;12217288;19;20010;-81
2022/05/05 16:32:43;;;;;;;6.83;2.83;;;;;;;17.41;61.88;100236.06;12208836;19;20018;-81
2022/05/05 16:36:47;;;;;;;4.93;2.58;;;;;;;17.44;61.53;100235.50;12198155;19;20022;-80
2022/05/05 16:40:51;;;;;;;6.93;3.20;;;;;;;17.44;61.92;100235.50;12190560;19;20567;-82
2022/05/05 16:44:53;;;;;;;4.70;2.72;;;;;;;17.46;61.65;100229.63;12206719;19;20259;-83
2022/05/05 16:48:59;;;;;;;7.95;3.00;;;;;;;17.44;61.74;100243.00;12182758;19;20366;-82
2022/05/05 16:53:01;;;;;;;7.95;3.13;;;;;;;17.44;62.78;100238.28;12213302;19;20028;-82
2022/05/05 16:57:03;;;;;;;7.05;3.00;;;;;;;17.45;64.04;100242.72;12201728;19;20523;-82
2022/05/05 17:01:05;;;;;;;5.03;2.67;;;;;;;17.46;64.52;100243.53;12183632;19;20017;-80
2022/05/05 17:05:07;;;;;;;5.43;2.97;;;;;;;17.44;64.61;100243.00;12204664;19;21038;-81
2022/05/05 17:09:09;;;;;;;8.45;3.40;;;;;;;17.43;65.47;100239.41;12200406;19;20003;-81
2022/05/05 17:13:11;;;;;;;5.97;3.50;;;;;;;17.41;66.08;100246.38;12180266;19;20038;-82
2022/05/05 17:17:13;;;;;;;5.55;3.20;;;;;;;17.37;66.23;100250.81;12207342;19;20094;-82
2022/05/05 17:21:15;;;;;;;;;;;;;;;17.26;66.36;100250.03;12199975;19;20007;-83
2022/05/05 17:25:17;;;;;;;10.18;3.42;;;;;;;17.21;66.15;100248.09;12182615;19;19954;-82
2022/05/05 17:29:20;;;;;;;6.10;3.00;;;;;;;17.12;67.02;100249.81;12202082;19;20496;-82
2022/05/05 17:33:25;;;;;;;10.20;3.47;;;;;;;17.03;68.30;100249.53;12217133;19;20424;-82
2022/05/05 17:37:27;;;;;;;11.23;4.20;;;;;;;16.93;69.39;100245.97;12187666;19;20086;-82
2022/05/05 17:41:29;;;;;;;8.63;4.37;;;;;;;16.82;70.53;100245.13;12203911;19;20011;-82
2022/05/05 17:54:14;;;;;;;11.73;6.95;;;;;;;16.39;72.22;100264.88;12203210;19;20010;-81
2022/05/05 17:58:18;;;;;;;8.77;4.18;;;;;;;16.25;72.82;100260.97;12195457;19;20017;-81
2022/05/05 18:02:23;;;;;;;7.63;3.92;;;;;;;16.10;72.69;100266.53;12220074;19;20013;-81
2022/05/05 18:06:26;;;;;;;6.85;3.85;;;;;;;15.98;73.42;100268.72;12228207;19;20362;-82
2022/05/05 18:10:29;;;;;;;16.67;4.23;;;;;;;15.84;74.24;100265.63;12205454;19;20014;-82
2022/05/05 18:14:30;;;;;;;7.22;4.40;;;;;;;15.74;74.53;100276.72;12206512;19;20010;-82
2022/05/05 18:18:33;;;;;;;7.90;4.15;;;;;;;15.64;74.98;100274.69;12212051;19;20070;-82
2022/05/05 18:22:35;;;;;;;9.82;3.92;;;;;;;15.53;74.44;100278.53;12190418;19;20018;-82
2022/05/05 18:26:37;;;;;;;7.32;4.05;;;;;;;15.40;73.80;100280.69;12213839;19;20089;-85
2022/05/05 18:30:39;;;;;;;6.25;4.43;;;;;;;15.31;75.08;100285.09;12219905;19;20010;-83
2022/05/05 18:34:42;;;;;;;7.20;3.70;;;;;;;15.22;76.01;100289.50;12199303;19;20540;-83
2022/05/05 18:38:44;;;;;;;9.23;3.65;;;;;;;15.13;77.21;100291.13;12205968;19;20615;-83
2022/05/05 18:42:46;;;;;;;;;;;;;;;15.03;78.46;100289.94;12206145;19;20015;-82
2022/05/05 18:46:48;;;;;;;9.13;4.78;;;;;;;14.96;78.44;100285.72;12187402;19;19911;-83
2022/05/05 18:50:50;;;;;;;13.57;5.68;;;;;;;14.88;79.76;100295.41;12208814;19;20018;-84
2022/05/05 18:54:52;;;;;;;9.60;4.80;;;;;;;14.81;80.36;100300.31;12209474;19;20461;-83
2022/05/05 18:58:53;;;;;;;12.40;4.20;;;;;;;14.74;81.37;100305.28;12181053;19;20027;-83
2022/05/05 19:02:55;;;;;;;9.13;4.15;;;;;;;14.70;81.70;100310.53;12206147;19;20303;-82
2022/05/05 19:06:59;;;;;;;7.13;4.28;;;;;;;14.64;81.85;100305.19;12181071;19;20468;-82
2022/05/05 19:11:00;;;;;;;;;;;;;;;14.55;83.07;100304.84;12200636;19;20857;-81
2022/05/05 19:15:03;;;;;;;5.75;3.85;;;;;;;14.51;82.77;100311.97;12203366;19;19907;-82
2022/05/05 19:19:05;;;;;;;10.43;3.47;;;;;;;14.46;83.78;100321.09;12183081;19;20010;-81
2022/05/05 19:23:06;;;;;;;8.55;4.32;;;;;;;14.42;84.62;100314.38;12209773;19;20038;-81
2022/05/05 19:27:09;;;;;;;8.80;4.97;;;;;;;14.35;84.95;100324.88;12211448;19;20011;-82
2022/05/05 19:31:11;;;;;;;8.27;3.93;;;;;;;14.31;85.02;100332.06;12177042;19;20074;-81
2022/05/05 19:35:14;;;;;;;9.98;5.13;;;;;;;14.25;85.42;100328.38;12210416;19;20006;-81
2022/05/05 19:39:16;;;;;;;13.90;5.90;;;;;;;14.21;85.19;100338.31;12209594;19;20039;-81
2022/05/05 19:43:18;;;;;;;12.55;5.45;;;;;;;14.18;84.92;100341.59;12181697;19;20014;-81
2022/05/05 19:47:19;;;;;;;9.77;4.53;;;;;;;14.17;84.62;100336.34;12208401;19;20082;-82
2022/05/05 19:51:21;;;;;;;8.18;4.85;;;;;;;14.16;84.52;100337.41;12204368;19;20031;-81
2022/05/05 20:04:11;;;;;;;8.02;4.82;;;;;;;14.12;84.26;100359.25;12187385;19;25006;-82
2022/05/05 20:08:13;;;;;;;9.40;5.03;;;;;;;14.12;84.51;100365.63;12196407;19;20006;-83
2022/05/05 20:12:17;;;;;;;10.93;5.53;;;;;;;14.11;84.73;100366.75;12197840;19;20014;-83
2022/05/05 20:16:23;;;;;;;12.25;5.22;;;;;;;14.09;84.98;100357.84;12179899;19;20015;-82
2022/05/05 20:20:24;;;;;;;;;;;;;;;14.07;85.47;100375.84;12201139;19;20044;-81
2022/05/05 20:24:26;;;;;;;12.82;5.60;;;;;;;14.07;84.74;100379.47;12197078;19;19918;-82
2022/05/05 20:28:28;;;;;;;12.85;5.60;;;;;;;14.06;85.29;100371.41;12188082;19;20414;-82
2022/05/05 20:32:30;;;;;;;13.90;5.90;;;;;;;14.05;85.83;100373.34;12207190;19;20010;-82
2022/05/05 20:36:33;;;;;;;11.65;5.65;;;;;;;14.04;86.34;100379.97;12211262;19;20034;-82
2022/05/05 20:40:37;;;;;;;11.50;5.75;;;;;;;14.02;86.76;100375.78;12181450;19;20093;-81
2022/05/05 20:44:39;;;;;;;11.98;4.72;;;;;;;13.97;86.83;100387.63;12193249;19;20479;-81
2022/05/05 20:48:41;;;;;;;10.32;5.35;;;;;;;13.94;86.05;100381.78;12208470;19;20015;-81
2022/05/05 20:52:42;;;;;;;8.80;4.95;;;;;;;13.91;85.77;100386.72;12185502;19;20082;-82
2022/05/05 20:56:46;;;;;;;11.48;5.20;;;;;;;13.91;85.03;100385.91;12201818;19;20420;-82
2022/05/05 21:00:48;;;;;;;10.55;5.00;;;;;;;13.93;83.46;100389.25;12208995;19;20011;-82
2022/05/05 21:04:50;;;;;;;14.93;4.55;;;;;;;13.91;82.86;100392.28;12177704;19;20400;-82
2022/05/05 21:08:53;;;;;;;8.75;4.35;;;;;;;13.89;81.82;100383.41;12208888;19;20011;-83
2022/05/05 21:12:54;;;;;;;11.13;5.20;;;;;;;13.87;81.49;100395.84;12202303;19;20034;-84
2022/05/05 21:16:56;;;;;;;11.82;4.95;;;;;;;13.84;81.38;100396.34;12233257;19;20420;-85
2022/05/05 21:25:31;;;;;;;12.05;4.30;;;;;;;13.71;82.09;100403.09;12221244;19;20011;-86
2022/05/05 21:29:33;;;;;;;8.55;4.15;;;;;;;13.63;82.31;100403.53;12248762;19;20089;-86
2022/05/05 21:33:34;;;;;;;8.80;4.30;;;;;;;13.55;82.64;100409.50;12243270;19;20025;-86
2022/05/05 21:37:36;;;;;;;11.45;5.90;;;;;;;13.51;83.15;100403.66;12201329;19;20035;-84
2022/05/05 21:41:38;;;;;;;10.80;5.28;;;;;;;13.50;83.47;100403.91;12212190;19;20063;-87
2022/05/05 21:45:40;;;;;;;15.32;5.03;;;;;;;13.47;83.88;100399.69;12218730;19;20023;-86
2022/05/05 21:49:41;;;;;;;12.40;4.43;;;;;;;13.42;83.55;100403.25;12189315;19;20007;-85
2022/05/05 21:53:43;;;;;;;10.48;4.38;;;;;;;13.37;83.55;100403.16;12211507;19;20166;-86
2022/05/05 21:57:46;;;;;;;9.82;4.43;;;;;;;13.31;82.91;100404.19;12214912;19;20747;-86
2022/05/05 22:01:47;;;;;;;9.10;4.28;;;;;;;13.26;82.27;100398.56;12202007;19;20449;-85
2022/05/05 22:05:50;;;;;;;13.30;4.97;;;;;;;13.21;82.18;100402.06;12213340;19;20096;-84
2022/05/05 22:09:52;;;;;;;;;;;;;;;13.11;82.37;100412.13;12217395;19;20013;-83
2022/05/05 22:13:54;;;;;;;10.00;4.10;;;;;;;13.05;81.21;100416.75;12215021;19;19911;-84
2022/05/05 22:17:56;;;;;;;6.40;3.80;;;;;;;12.99;78.94;100412.22;12215030;19;20011;-84